sensor_id;sensor_type;location;lat;lon;timestamp;temperature;humidity
35497;DHT22;21609;49.298;6.844;2023-08-24T00:01:51;25.00;64.40
35497;DHT22;21609;49.298;6.844;2023-08-24T00:04:17;25.00;64.40
35497;DHT22;21609;49.298;6.844;2023-08-24T00:06:42;25.10;64.40
35497;DHT22;21609;49.298;6.844;2023-08-24T00:09:08;25.10;64.40
35497;DHT22;21609;49.298;6.844;2023-08-24T00:11:33;25.00;64.30
35497;DHT22;21609;49.298;6.844;2023-08-24T00:13:59;25.00;64.30
35497;DHT22;21609;49.298;6.844;2023-08-24T00:16:24;25.00;64.40
35497;DHT22;21609;49.298;6.844;2023-08-24T00:18:50;25.10;64.50
35497;DHT22;21609;49.298;6.844;2023-08-24T00:21:16;25.00;64.30
35497;DHT22;21609;49.298;6.844;2023-08-24T00:23:48;25.00;64.40
35497;DHT22;21609;49.298;6.844;2023-08-24T00:26:13;25.00;64.40
35497;DHT22;21609;49.298;6.844;2023-08-24T00:28:42;25.00;64.40
35497;DHT22;21609;49.298;6.844;2023-08-24T00:31:07;25.00;64.40
35497;DHT22;21609;49.298;6.844;2023-08-24T00:33:33;25.00;64.40
35497;DHT22;21609;49.298;6.844;2023-08-24T00:35:59;25.00;64.40
35497;DHT22;21609;49.298;6.844;2023-08-24T00:38:24;25.00;64.40
35497;DHT22;21609;49.298;6.844;2023-08-24T00:40:50;25.00;64.40
35497;DHT22;21609;49.298;6.844;2023-08-24T00:43:18;25.00;64.40
35497;DHT22;21609;49.298;6.844;2023-08-24T00:45:47;25.00;64.40
35497;DHT22;21609;49.298;6.844;2023-08-24T00:48:12;25.00;64.40
35497;DHT22;21609;49.298;6.844;2023-08-24T00:50:38;25.00;64.40
35497;DHT22;21609;49.298;6.844;2023-08-24T00:53:05;25.00;64.40
35497;DHT22;21609;49.298;6.844;2023-08-24T00:55:31;25.00;64.50
35497;DHT22;21609;49.298;6.844;2023-08-24T00:57:56;25.00;64.40
35497;DHT22;21609;49.298;6.844;2023-08-24T01:00:22;25.00;64.40
35497;DHT22;21609;49.298;6.844;2023-08-24T01:02:48;25.00;64.50
35497;DHT22;21609;49.298;6.844;2023-08-24T01:05:13;24.90;64.40
35497;DHT22;21609;49.298;6.844;2023-08-24T01:07:39;25.00;64.50
35497;DHT22;21609;49.298;6.844;2023-08-24T01:10:05;25.00;64.50
35497;DHT22;21609;49.298;6.844;2023-08-24T01:17:31;24.90;64.40
35497;DHT22;21609;49.298;6.844;2023-08-24T01:19:57;24.90;64.50
35497;DHT22;21609;49.298;6.844;2023-08-24T01:25:00;25.00;64.50
35497;DHT22;21609;49.298;6.844;2023-08-24T01:27:26;24.90;64.40
35497;DHT22;21609;49.298;6.844;2023-08-24T01:29:53;24.90;64.40
35497;DHT22;21609;49.298;6.844;2023-08-24T01:32:22;24.90;64.40
35497;DHT22;21609;49.298;6.844;2023-08-24T01:34:47;24.90;64.40
35497;DHT22;21609;49.298;6.844;2023-08-24T01:37:13;24.90;64.40
35497;DHT22;21609;49.298;6.844;2023-08-24T01:39:42;24.90;64.40
35497;DHT22;21609;49.298;6.844;2023-08-24T01:42:08;24.90;64.50
35497;DHT22;21609;49.298;6.844;2023-08-24T01:44:37;24.90;64.40
35497;DHT22;21609;49.298;6.844;2023-08-24T01:47:04;24.90;64.50
35497;DHT22;21609;49.298;6.844;2023-08-24T01:49:30;24.90;64.40
35497;DHT22;21609;49.298;6.844;2023-08-24T01:51:57;24.90;64.40
35497;DHT22;21609;49.298;6.844;2023-08-24T01:54:23;24.90;64.40
35497;DHT22;21609;49.298;6.844;2023-08-24T01:56:48;24.90;64.40
35497;DHT22;21609;49.298;6.844;2023-08-24T01:59:14;24.90;64.40
35497;DHT22;21609;49.298;6.844;2023-08-24T02:01:39;24.90;64.40
35497;DHT22;21609;49.298;6.844;2023-08-24T02:04:05;24.90;64.40
35497;DHT22;21609;49.298;6.844;2023-08-24T02:06:30;24.90;64.40
35497;DHT22;21609;49.298;6.844;2023-08-24T02:08:56;24.90;64.70
35497;DHT22;21609;49.298;6.844;2023-08-24T02:11:21;24.90;64.40
35497;DHT22;21609;49.298;6.844;2023-08-24T02:13:47;24.90;64.50
35497;DHT22;21609;49.298;6.844;2023-08-24T02:16:12;24.90;64.40
35497;DHT22;21609;49.298;6.844;2023-08-24T02:18:38;24.90;64.40
35497;DHT22;21609;49.298;6.844;2023-08-24T02:21:07;24.90;64.40
35497;DHT22;21609;49.298;6.844;2023-08-24T02:23:33;24.90;64.50
35497;DHT22;21609;49.298;6.844;2023-08-24T02:25:58;24.90;64.50
35497;DHT22;21609;49.298;6.844;2023-08-24T02:28:23;24.90;64.40
35497;DHT22;21609;49.298;6.844;2023-08-24T02:30:49;24.90;64.40
35497;DHT22;21609;49.298;6.844;2023-08-24T02:33:15;24.90;64.40
35497;DHT22;21609;49.298;6.844;2023-08-24T02:35:40;24.90;64.50
35497;DHT22;21609;49.298;6.844;2023-08-24T02:38:06;24.90;64.50
35497;DHT22;21609;49.298;6.844;2023-08-24T02:40:31;24.90;64.50
35497;DHT22;21609;49.298;6.844;2023-08-24T02:42:56;24.80;64.40
35497;DHT22;21609;49.298;6.844;2023-08-24T02:45:22;24.80;64.40
35497;DHT22;21609;49.298;6.844;2023-08-24T02:47:48;24.80;64.50
35497;DHT22;21609;49.298;6.844;2023-08-24T02:50:13;24.80;64.70
35497;DHT22;21609;49.298;6.844;2023-08-24T02:52:38;24.90;64.50
35497;DHT22;21609;49.298;6.844;2023-08-24T02:55:04;24.80;64.50
35497;DHT22;21609;49.298;6.844;2023-08-24T02:57:30;24.90;64.50
35497;DHT22;21609;49.298;6.844;2023-08-24T02:59:56;24.90;64.50
35497;DHT22;21609;49.298;6.844;2023-08-24T03:02:21;24.80;64.40
35497;DHT22;21609;49.298;6.844;2023-08-24T03:04:46;24.80;64.60
35497;DHT22;21609;49.298;6.844;2023-08-24T03:07:12;24.80;64.40
35497;DHT22;21609;49.298;6.844;2023-08-24T03:09:37;24.80;64.50
35497;DHT22;21609;49.298;6.844;2023-08-24T03:12:03;24.80;64.50
35497;DHT22;21609;49.298;6.844;2023-08-24T03:14:28;24.80;64.40
35497;DHT22;21609;49.298;6.844;2023-08-24T03:16:54;24.80;64.40
35497;DHT22;21609;49.298;6.844;2023-08-24T03:19:19;24.80;64.50
35497;DHT22;21609;49.298;6.844;2023-08-24T03:21:45;24.80;64.50
35497;DHT22;21609;49.298;6.844;2023-08-24T03:24:10;24.80;64.50
35497;DHT22;21609;49.298;6.844;2023-08-24T03:26:36;24.80;65.20
35497;DHT22;21609;49.298;6.844;2023-08-24T03:29:01;24.80;64.50
35497;DHT22;21609;49.298;6.844;2023-08-24T03:31:27;24.80;64.70
35497;DHT22;21609;49.298;6.844;2023-08-24T03:33:52;24.80;64.50
35497;DHT22;21609;49.298;6.844;2023-08-24T03:36:18;24.80;64.50
35497;DHT22;21609;49.298;6.844;2023-08-24T03:38:44;24.80;65.40
35497;DHT22;21609;49.298;6.844;2023-08-24T03:41:10;24.80;64.60
35497;DHT22;21609;49.298;6.844;2023-08-24T03:43:36;24.80;64.60
35497;DHT22;21609;49.298;6.844;2023-08-24T03:46:02;24.80;64.70
35497;DHT22;21609;49.298;6.844;2023-08-24T03:48:29;24.80;64.70
35497;DHT22;21609;49.298;6.844;2023-08-24T03:50:55;24.80;64.70
35497;DHT22;21609;49.298;6.844;2023-08-24T03:53:20;24.80;64.60
35497;DHT22;21609;49.298;6.844;2023-08-24T03:55:49;24.80;64.60
35497;DHT22;21609;49.298;6.844;2023-08-24T03:58:15;24.80;64.60
35497;DHT22;21609;49.298;6.844;2023-08-24T04:00:40;24.80;64.70
35497;DHT22;21609;49.298;6.844;2023-08-24T04:03:07;24.80;64.90
35497;DHT22;21609;49.298;6.844;2023-08-24T04:05:32;24.80;64.70
35497;DHT22;21609;49.298;6.844;2023-08-24T04:07:58;24.80;64.50
35497;DHT22;21609;49.298;6.844;2023-08-24T04:10:25;24.80;64.50
35497;DHT22;21609;49.298;6.844;2023-08-24T04:12:51;24.80;64.60
35497;DHT22;21609;49.298;6.844;2023-08-24T04:15:16;24.80;65.50
35497;DHT22;21609;49.298;6.844;2023-08-24T04:17:42;24.80;64.60
35497;DHT22;21609;49.298;6.844;2023-08-24T04:20:08;24.80;64.60
35497;DHT22;21609;49.298;6.844;2023-08-24T04:22:34;24.50;60.30
35497;DHT22;21609;49.298;6.844;2023-08-24T04:24:59;24.30;59.60
35497;DHT22;21609;49.298;6.844;2023-08-24T04:27:25;24.00;59.30
35497;DHT22;21609;49.298;6.844;2023-08-24T04:29:50;23.90;59.50
35497;DHT22;21609;49.298;6.844;2023-08-24T04:32:16;23.90;59.10
35497;DHT22;21609;49.298;6.844;2023-08-24T04:34:42;23.90;58.60
35497;DHT22;21609;49.298;6.844;2023-08-24T04:37:07;23.90;58.60
35497;DHT22;21609;49.298;6.844;2023-08-24T04:39:33;23.80;58.90
35497;DHT22;21609;49.298;6.844;2023-08-24T04:41:58;23.70;59.00
35497;DHT22;21609;49.298;6.844;2023-08-24T04:44:24;23.60;59.60
35497;DHT22;21609;49.298;6.844;2023-08-24T04:46:49;23.70;59.30
35497;DHT22;21609;49.298;6.844;2023-08-24T04:49:15;23.60;59.20
35497;DHT22;21609;49.298;6.844;2023-08-24T04:51:40;23.60;59.80
35497;DHT22;21609;49.298;6.844;2023-08-24T04:54:06;23.50;59.80
35497;DHT22;21609;49.298;6.844;2023-08-24T04:56:31;23.50;59.60
35497;DHT22;21609;49.298;6.844;2023-08-24T04:58:57;23.40;59.70
35497;DHT22;21609;49.298;6.844;2023-08-24T05:01:23;23.40;59.80
35497;DHT22;21609;49.298;6.844;2023-08-24T05:03:50;23.40;59.80
35497;DHT22;21609;49.298;6.844;2023-08-24T05:06:16;23.30;59.80
35497;DHT22;21609;49.298;6.844;2023-08-24T05:08:42;23.30;59.50
35497;DHT22;21609;49.298;6.844;2023-08-24T05:11:14;23.30;59.50
35497;DHT22;21609;49.298;6.844;2023-08-24T05:13:43;23.30;59.40
35497;DHT22;21609;49.298;6.844;2023-08-24T05:16:12;23.30;59.40
35497;DHT22;21609;49.298;6.844;2023-08-24T05:18:37;23.30;59.10
35497;DHT22;21609;49.298;6.844;2023-08-24T05:21:03;23.30;58.50
35497;DHT22;21609;49.298;6.844;2023-08-24T05:23:29;23.40;58.50
35497;DHT22;21609;49.298;6.844;2023-08-24T05:25:56;23.30;58.00
35497;DHT22;21609;49.298;6.844;2023-08-24T05:28:21;23.20;57.70
35497;DHT22;21609;49.298;6.844;2023-08-24T05:30:46;23.20;57.90
35497;DHT22;21609;49.298;6.844;2023-08-24T05:33:12;23.40;57.90
35497;DHT22;21609;49.298;6.844;2023-08-24T05:35:37;23.40;58.10
35497;DHT22;21609;49.298;6.844;2023-08-24T05:38:03;23.50;58.80
35497;DHT22;21609;49.298;6.844;2023-08-24T05:40:28;23.50;59.00
35497;DHT22;21609;49.298;6.844;2023-08-24T05:42:54;23.60;58.30
35497;DHT22;21609;49.298;6.844;2023-08-24T05:45:19;23.60;59.40
35497;DHT22;21609;49.298;6.844;2023-08-24T05:47:45;23.60;60.00
35497;DHT22;21609;49.298;6.844;2023-08-24T05:50:10;23.70;59.80
35497;DHT22;21609;49.298;6.844;2023-08-24T05:52:37;23.70;59.90
35497;DHT22;21609;49.298;6.844;2023-08-24T05:55:02;23.70;59.90
35497;DHT22;21609;49.298;6.844;2023-08-24T05:57:28;23.70;60.50
35497;DHT22;21609;49.298;6.844;2023-08-24T05:59:53;23.70;60.70
35497;DHT22;21609;49.298;6.844;2023-08-24T06:02:19;23.70;60.70
35497;DHT22;21609;49.298;6.844;2023-08-24T06:04:47;23.80;61.00
35497;DHT22;21609;49.298;6.844;2023-08-24T06:07:12;23.80;60.90
35497;DHT22;21609;49.298;6.844;2023-08-24T06:09:38;23.80;60.90
35497;DHT22;21609;49.298;6.844;2023-08-24T06:12:03;23.80;61.30
35497;DHT22;21609;49.298;6.844;2023-08-24T06:14:29;23.80;60.90
35497;DHT22;21609;49.298;6.844;2023-08-24T06:16:54;23.80;61.90
35497;DHT22;21609;49.298;6.844;2023-08-24T06:19:20;23.90;60.60
35497;DHT22;21609;49.298;6.844;2023-08-24T06:21:46;23.90;60.40
35497;DHT22;21609;49.298;6.844;2023-08-24T06:24:11;23.90;60.50
35497;DHT22;21609;49.298;6.844;2023-08-24T06:26:36;23.90;60.40
35497;DHT22;21609;49.298;6.844;2023-08-24T06:29:02;23.90;60.50
35497;DHT22;21609;49.298;6.844;2023-08-24T06:31:28;23.90;60.50
35497;DHT22;21609;49.298;6.844;2023-08-24T06:33:55;23.90;60.60
35497;DHT22;21609;49.298;6.844;2023-08-24T06:36:20;23.90;60.60
35497;DHT22;21609;49.298;6.844;2023-08-24T06:38:46;24.00;61.00
35497;DHT22;21609;49.298;6.844;2023-08-24T06:41:11;23.90;60.60
35497;DHT22;21609;49.298;6.844;2023-08-24T06:43:37;24.00;61.50
35497;DHT22;21609;49.298;6.844;2023-08-24T06:46:04;23.90;64.90
35497;DHT22;21609;49.298;6.844;2023-08-24T06:48:36;23.80;65.10
35497;DHT22;21609;49.298;6.844;2023-08-24T06:51:02;23.80;65.90
35497;DHT22;21609;49.298;6.844;2023-08-24T06:53:28;23.80;66.20
35497;DHT22;21609;49.298;6.844;2023-08-24T06:55:56;23.80;66.30
35497;DHT22;21609;49.298;6.844;2023-08-24T06:58:22;23.80;66.10
35497;DHT22;21609;49.298;6.844;2023-08-24T07:00:48;23.80;66.20
35497;DHT22;21609;49.298;6.844;2023-08-24T07:03:18;23.80;65.80
35497;DHT22;21609;49.298;6.844;2023-08-24T07:05:45;23.80;65.90
35497;DHT22;21609;49.298;6.844;2023-08-24T07:08:10;23.90;65.30
35497;DHT22;21609;49.298;6.844;2023-08-24T07:10:36;23.80;65.80
35497;DHT22;21609;49.298;6.844;2023-08-24T07:13:01;23.90;66.20
35497;DHT22;21609;49.298;6.844;2023-08-24T07:15:27;23.90;65.90
35497;DHT22;21609;49.298;6.844;2023-08-24T07:17:53;23.90;66.20
35497;DHT22;21609;49.298;6.844;2023-08-24T07:20:18;23.90;66.00
35497;DHT22;21609;49.298;6.844;2023-08-24T07:22:45;23.90;66.60
35497;DHT22;21609;49.298;6.844;2023-08-24T07:25:11;23.90;66.20
35497;DHT22;21609;49.298;6.844;2023-08-24T07:27:37;24.00;66.60
35497;DHT22;21609;49.298;6.844;2023-08-24T07:30:03;23.90;66.70
35497;DHT22;21609;49.298;6.844;2023-08-24T07:32:31;24.00;66.20
35497;DHT22;21609;49.298;6.844;2023-08-24T07:34:57;24.00;66.40
35497;DHT22;21609;49.298;6.844;2023-08-24T07:37:24;24.00;66.30
35497;DHT22;21609;49.298;6.844;2023-08-24T07:39:50;24.00;66.20
35497;DHT22;21609;49.298;6.844;2023-08-24T07:42:15;24.00;66.40
35497;DHT22;21609;49.298;6.844;2023-08-24T07:44:41;24.00;66.40
35497;DHT22;21609;49.298;6.844;2023-08-24T07:47:06;24.00;66.90
35497;DHT22;21609;49.298;6.844;2023-08-24T07:49:32;24.00;66.90
35497;DHT22;21609;49.298;6.844;2023-08-24T07:51:57;24.10;66.50
35497;DHT22;21609;49.298;6.844;2023-08-24T07:54:24;24.00;66.50
35497;DHT22;21609;49.298;6.844;2023-08-24T07:56:50;24.10;66.80
35497;DHT22;21609;49.298;6.844;2023-08-24T07:59:15;24.10;66.60
35497;DHT22;21609;49.298;6.844;2023-08-24T08:01:41;24.10;66.30
35497;DHT22;21609;49.298;6.844;2023-08-24T08:04:06;24.10;66.80
35497;DHT22;21609;49.298;6.844;2023-08-24T08:06:32;24.10;66.60
35497;DHT22;21609;49.298;6.844;2023-08-24T08:08:57;24.10;66.90
35497;DHT22;21609;49.298;6.844;2023-08-24T08:11:23;24.10;67.00
35497;DHT22;21609;49.298;6.844;2023-08-24T08:13:49;24.10;66.80
35497;DHT22;21609;49.298;6.844;2023-08-24T08:16:14;24.10;66.40
35497;DHT22;21609;49.298;6.844;2023-08-24T08:18:40;24.10;67.00
35497;DHT22;21609;49.298;6.844;2023-08-24T08:21:09;24.10;67.80
35497;DHT22;21609;49.298;6.844;2023-08-24T08:23:35;24.10;66.80
35497;DHT22;21609;49.298;6.844;2023-08-24T08:26:00;24.20;67.00
35497;DHT22;21609;49.298;6.844;2023-08-24T08:28:26;24.20;67.10
35497;DHT22;21609;49.298;6.844;2023-08-24T08:30:52;24.20;67.20
35497;DHT22;21609;49.298;6.844;2023-08-24T08:33:17;24.20;67.30
35497;DHT22;21609;49.298;6.844;2023-08-24T08:35:44;24.20;67.30
35497;DHT22;21609;49.298;6.844;2023-08-24T08:38:10;24.20;66.80
35497;DHT22;21609;49.298;6.844;2023-08-24T08:40:38;24.20;67.50
35497;DHT22;21609;49.298;6.844;2023-08-24T08:43:06;24.30;67.00
35497;DHT22;21609;49.298;6.844;2023-08-24T08:45:32;24.30;66.70
35497;DHT22;21609;49.298;6.844;2023-08-24T08:47:57;24.30;67.10
35497;DHT22;21609;49.298;6.844;2023-08-24T08:50:24;24.30;67.10
35497;DHT22;21609;49.298;6.844;2023-08-24T08:52:50;24.30;66.80
35497;DHT22;21609;49.298;6.844;2023-08-24T08:55:15;24.30;67.00
35497;DHT22;21609;49.298;6.844;2023-08-24T08:57:41;24.40;67.10
35497;DHT22;21609;49.298;6.844;2023-08-24T09:00:11;24.40;66.90
35497;DHT22;21609;49.298;6.844;2023-08-24T09:02:41;24.40;67.00
35497;DHT22;21609;49.298;6.844;2023-08-24T09:05:07;24.40;67.00
35497;DHT22;21609;49.298;6.844;2023-08-24T09:07:34;24.40;66.50
35497;DHT22;21609;49.298;6.844;2023-08-24T09:09:59;24.40;66.40
35497;DHT22;21609;49.298;6.844;2023-08-24T09:12:25;24.40;66.70
35497;DHT22;21609;49.298;6.844;2023-08-24T09:14:50;24.40;66.20
35497;DHT22;21609;49.298;6.844;2023-08-24T09:17:22;24.40;66.90
35497;DHT22;21609;49.298;6.844;2023-08-24T09:19:49;24.40;67.00
35497;DHT22;21609;49.298;6.844;2023-08-24T09:22:15;24.40;66.90
35497;DHT22;21609;49.298;6.844;2023-08-24T09:24:40;24.50;66.80
35497;DHT22;21609;49.298;6.844;2023-08-24T09:27:15;24.40;66.80
35497;DHT22;21609;49.298;6.844;2023-08-24T09:29:42;24.50;67.00
35497;DHT22;21609;49.298;6.844;2023-08-24T09:32:08;24.50;67.10
35497;DHT22;21609;49.298;6.844;2023-08-24T09:34:33;24.50;67.00
35497;DHT22;21609;49.298;6.844;2023-08-24T09:36:59;24.50;66.80
35497;DHT22;21609;49.298;6.844;2023-08-24T09:39:24;24.50;66.50
35497;DHT22;21609;49.298;6.844;2023-08-24T09:41:50;24.50;66.50
35497;DHT22;21609;49.298;6.844;2023-08-24T09:44:18;24.50;66.60
35497;DHT22;21609;49.298;6.844;2023-08-24T09:46:44;24.50;66.40
35497;DHT22;21609;49.298;6.844;2023-08-24T09:49:10;24.50;66.90
35497;DHT22;21609;49.298;6.844;2023-08-24T09:51:36;24.50;66.90
35497;DHT22;21609;49.298;6.844;2023-08-24T09:54:06;24.50;66.30
35497;DHT22;21609;49.298;6.844;2023-08-24T09:56:37;24.50;66.80
35497;DHT22;21609;49.298;6.844;2023-08-24T09:59:13;24.50;66.60
35497;DHT22;21609;49.298;6.844;2023-08-24T10:01:42;24.50;66.80
35497;DHT22;21609;49.298;6.844;2023-08-24T10:04:09;24.60;66.60
35497;DHT22;21609;49.298;6.844;2023-08-24T10:06:38;24.60;67.00
35497;DHT22;21609;49.298;6.844;2023-08-24T10:09:06;24.60;67.50
35497;DHT22;21609;49.298;6.844;2023-08-24T10:11:34;24.60;67.10
35497;DHT22;21609;49.298;6.844;2023-08-24T10:14:12;24.60;66.80
35497;DHT22;21609;49.298;6.844;2023-08-24T10:16:38;24.60;67.10
35497;DHT22;21609;49.298;6.844;2023-08-24T10:19:04;24.70;66.80
35497;DHT22;21609;49.298;6.844;2023-08-24T10:21:30;24.70;66.80
35497;DHT22;21609;49.298;6.844;2023-08-24T10:23:56;24.70;66.80
35497;DHT22;21609;49.298;6.844;2023-08-24T10:26:25;24.70;66.50
35497;DHT22;21609;49.298;6.844;2023-08-24T10:28:51;24.70;66.40
35497;DHT22;21609;49.298;6.844;2023-08-24T10:31:17;24.70;66.50
35497;DHT22;21609;49.298;6.844;2023-08-24T10:33:43;24.70;66.50
35497;DHT22;21609;49.298;6.844;2023-08-24T10:36:10;24.70;66.30
35497;DHT22;21609;49.298;6.844;2023-08-24T10:38:42;24.70;66.30
35497;DHT22;21609;49.298;6.844;2023-08-24T10:41:07;24.80;64.30
35497;DHT22;21609;49.298;6.844;2023-08-24T10:43:39;24.80;64.90
35497;DHT22;21609;49.298;6.844;2023-08-24T10:46:12;24.80;66.00
35497;DHT22;21609;49.298;6.844;2023-08-24T10:51:16;24.80;65.70
35497;DHT22;21609;49.298;6.844;2023-08-24T10:53:43;24.80;66.60
35497;DHT22;21609;49.298;6.844;2023-08-24T10:56:12;24.80;66.10
35497;DHT22;21609;49.298;6.844;2023-08-24T10:58:38;24.80;65.20
35497;DHT22;21609;49.298;6.844;2023-08-24T11:01:04;24.80;65.90
35497;DHT22;21609;49.298;6.844;2023-08-24T11:03:33;24.80;65.60
35497;DHT22;21609;49.298;6.844;2023-08-24T11:05:58;24.90;65.10
35497;DHT22;21609;49.298;6.844;2023-08-24T11:11:17;24.80;65.70
35497;DHT22;21609;49.298;6.844;2023-08-24T11:16:40;24.90;65.90
35497;DHT22;21609;49.298;6.844;2023-08-24T11:19:06;24.90;65.10
35497;DHT22;21609;49.298;6.844;2023-08-24T11:21:33;24.90;65.20
35497;DHT22;21609;49.298;6.844;2023-08-24T11:23:58;24.90;65.80
35497;DHT22;21609;49.298;6.844;2023-08-24T11:26:25;24.90;65.50
35497;DHT22;21609;49.298;6.844;2023-08-24T11:28:52;24.90;65.10
35497;DHT22;21609;49.298;6.844;2023-08-24T11:31:18;24.90;65.90
35497;DHT22;21609;49.298;6.844;2023-08-24T11:33:43;24.90;66.20
35497;DHT22;21609;49.298;6.844;2023-08-24T11:36:09;24.90;64.50
35497;DHT22;21609;49.298;6.844;2023-08-24T11:41:16;24.90;65.10
35497;DHT22;21609;49.298;6.844;2023-08-24T11:43:42;24.90;65.70
35497;DHT22;21609;49.298;6.844;2023-08-24T11:46:08;25.00;65.20
35497;DHT22;21609;49.298;6.844;2023-08-24T11:48:33;25.00;65.00
35497;DHT22;21609;49.298;6.844;2023-08-24T11:50:59;25.00;64.50
35497;DHT22;21609;49.298;6.844;2023-08-24T11:53:25;25.00;64.30
35497;DHT22;21609;49.298;6.844;2023-08-24T11:55:53;25.00;65.20
35497;DHT22;21609;49.298;6.844;2023-08-24T11:58:19;25.00;66.30
35497;DHT22;21609;49.298;6.844;2023-08-24T12:00:45;25.10;65.50
35497;DHT22;21609;49.298;6.844;2023-08-24T12:03:11;25.00;66.00
35497;DHT22;21609;49.298;6.844;2023-08-24T12:05:37;25.00;65.90
35497;DHT22;21609;49.298;6.844;2023-08-24T12:08:02;25.00;65.40
35497;DHT22;21609;49.298;6.844;2023-08-24T12:10:28;25.00;65.80
35497;DHT22;21609;49.298;6.844;2023-08-24T12:13:06;25.00;66.00
35497;DHT22;21609;49.298;6.844;2023-08-24T12:15:35;25.00;65.30
35497;DHT22;21609;49.298;6.844;2023-08-24T12:18:11;25.10;65.80
35497;DHT22;21609;49.298;6.844;2023-08-24T12:20:36;25.00;66.30
35497;DHT22;21609;49.298;6.844;2023-08-24T12:23:02;25.10;64.80
35497;DHT22;21609;49.298;6.844;2023-08-24T12:25:28;25.00;66.50
35497;DHT22;21609;49.298;6.844;2023-08-24T12:28:09;25.00;66.80
35497;DHT22;21609;49.298;6.844;2023-08-24T12:33:20;25.10;65.80
35497;DHT22;21609;49.298;6.844;2023-08-24T12:35:45;25.10;66.40
35497;DHT22;21609;49.298;6.844;2023-08-24T12:38:11;25.10;66.20
35497;DHT22;21609;49.298;6.844;2023-08-24T12:40:37;25.10;65.80
35497;DHT22;21609;49.298;6.844;2023-08-24T12:43:02;25.10;65.40
35497;DHT22;21609;49.298;6.844;2023-08-24T12:45:28;25.10;66.00
35497;DHT22;21609;49.298;6.844;2023-08-24T12:47:53;25.10;65.60
35497;DHT22;21609;49.298;6.844;2023-08-24T12:50:19;25.10;66.00
35497;DHT22;21609;49.298;6.844;2023-08-24T12:52:44;25.10;65.60
35497;DHT22;21609;49.298;6.844;2023-08-24T12:55:10;25.10;66.70
35497;DHT22;21609;49.298;6.844;2023-08-24T12:57:35;25.10;67.00
35497;DHT22;21609;49.298;6.844;2023-08-24T13:00:01;25.10;65.90
35497;DHT22;21609;49.298;6.844;2023-08-24T13:02:26;25.10;66.20
35497;DHT22;21609;49.298;6.844;2023-08-24T13:04:52;25.10;65.40
35497;DHT22;21609;49.298;6.844;2023-08-24T13:07:17;25.10;66.00
35497;DHT22;21609;49.298;6.844;2023-08-24T13:09:43;25.20;66.40
35497;DHT22;21609;49.298;6.844;2023-08-24T13:12:08;25.10;66.70
35497;DHT22;21609;49.298;6.844;2023-08-24T13:14:34;25.10;66.30
35497;DHT22;21609;49.298;6.844;2023-08-24T13:16:59;25.10;66.50
35497;DHT22;21609;49.298;6.844;2023-08-24T13:19:25;25.10;66.10
35497;DHT22;21609;49.298;6.844;2023-08-24T13:21:50;25.10;65.30
35497;DHT22;21609;49.298;6.844;2023-08-24T13:24:16;25.10;67.20
35497;DHT22;21609;49.298;6.844;2023-08-24T13:26:41;25.10;67.80
35497;DHT22;21609;49.298;6.844;2023-08-24T13:29:07;25.00;66.70
35497;DHT22;21609;49.298;6.844;2023-08-24T13:31:32;25.10;68.10
35497;DHT22;21609;49.298;6.844;2023-08-24T13:33:58;25.00;67.20
35497;DHT22;21609;49.298;6.844;2023-08-24T13:36:23;25.00;67.50
35497;DHT22;21609;49.298;6.844;2023-08-24T13:38:49;24.90;67.50
35497;DHT22;21609;49.298;6.844;2023-08-24T13:41:15;25.00;67.10
35497;DHT22;21609;49.298;6.844;2023-08-24T13:43:40;25.00;67.10
35497;DHT22;21609;49.298;6.844;2023-08-24T13:46:07;25.00;67.00
35497;DHT22;21609;49.298;6.844;2023-08-24T13:48:32;25.00;67.30
35497;DHT22;21609;49.298;6.844;2023-08-24T13:51:01;25.00;67.90
35497;DHT22;21609;49.298;6.844;2023-08-24T13:53:26;25.00;67.20
35497;DHT22;21609;49.298;6.844;2023-08-24T13:55:52;25.00;66.70
35497;DHT22;21609;49.298;6.844;2023-08-24T13:58:17;25.10;66.60
35497;DHT22;21609;49.298;6.844;2023-08-24T14:00:43;25.10;67.40
35497;DHT22;21609;49.298;6.844;2023-08-24T14:03:09;25.00;67.70
35497;DHT22;21609;49.298;6.844;2023-08-24T14:05:38;25.10;67.50
35497;DHT22;21609;49.298;6.844;2023-08-24T14:08:03;25.10;67.40
35497;DHT22;21609;49.298;6.844;2023-08-24T14:10:29;25.10;67.80
35497;DHT22;21609;49.298;6.844;2023-08-24T14:12:55;25.10;67.40
35497;DHT22;21609;49.298;6.844;2023-08-24T14:15:20;25.10;67.80
35497;DHT22;21609;49.298;6.844;2023-08-24T14:17:46;25.00;68.00
35497;DHT22;21609;49.298;6.844;2023-08-24T14:20:11;25.10;67.90
35497;DHT22;21609;49.298;6.844;2023-08-24T14:22:38;25.10;67.50
35497;DHT22;21609;49.298;6.844;2023-08-24T14:25:03;25.10;67.70
35497;DHT22;21609;49.298;6.844;2023-08-24T14:27:29;25.10;67.40
35497;DHT22;21609;49.298;6.844;2023-08-24T14:29:54;25.10;67.50
35497;DHT22;21609;49.298;6.844;2023-08-24T14:32:20;25.10;67.10
35497;DHT22;21609;49.298;6.844;2023-08-24T14:34:48;25.10;67.20
35497;DHT22;21609;49.298;6.844;2023-08-24T14:37:13;25.10;67.90
35497;DHT22;21609;49.298;6.844;2023-08-24T14:39:38;25.10;66.10
35497;DHT22;21609;49.298;6.844;2023-08-24T14:42:04;25.10;67.30
35497;DHT22;21609;49.298;6.844;2023-08-24T14:44:29;25.10;68.20
35497;DHT22;21609;49.298;6.844;2023-08-24T14:46:55;25.10;67.70
35497;DHT22;21609;49.298;6.844;2023-08-24T14:49:20;25.10;67.60
35497;DHT22;21609;49.298;6.844;2023-08-24T14:51:46;25.10;67.60
35497;DHT22;21609;49.298;6.844;2023-08-24T14:54:12;25.10;67.50
35497;DHT22;21609;49.298;6.844;2023-08-24T14:56:39;25.10;67.70
35497;DHT22;21609;49.298;6.844;2023-08-24T14:59:05;25.10;67.90
35497;DHT22;21609;49.298;6.844;2023-08-24T15:01:30;25.10;68.10
35497;DHT22;21609;49.298;6.844;2023-08-24T15:03:56;25.10;68.20
35497;DHT22;21609;49.298;6.844;2023-08-24T15:06:22;25.10;68.20
35497;DHT22;21609;49.298;6.844;2023-08-24T15:08:47;25.10;68.10
35497;DHT22;21609;49.298;6.844;2023-08-24T15:11:14;25.10;67.80
35497;DHT22;21609;49.298;6.844;2023-08-24T15:13:39;25.10;68.20
35497;DHT22;21609;49.298;6.844;2023-08-24T15:16:05;25.10;68.10
35497;DHT22;21609;49.298;6.844;2023-08-24T15:18:30;25.10;68.00
35497;DHT22;21609;49.298;6.844;2023-08-24T15:20:56;25.10;67.50
35497;DHT22;21609;49.298;6.844;2023-08-24T15:25:47;25.10;67.30
35497;DHT22;21609;49.298;6.844;2023-08-24T15:28:12;25.10;65.00
35497;DHT22;21609;49.298;6.844;2023-08-24T15:30:38;25.10;67.90
35497;DHT22;21609;49.298;6.844;2023-08-24T15:33:03;25.10;68.40
35497;DHT22;21609;49.298;6.844;2023-08-24T15:35:29;25.10;68.30
35497;DHT22;21609;49.298;6.844;2023-08-24T15:37:54;25.10;68.40
35497;DHT22;21609;49.298;6.844;2023-08-24T15:40:20;25.00;68.20
35497;DHT22;21609;49.298;6.844;2023-08-24T15:42:45;25.10;68.10
35497;DHT22;21609;49.298;6.844;2023-08-24T15:45:12;25.10;68.10
35497;DHT22;21609;49.298;6.844;2023-08-24T15:47:37;25.00;68.00